createdAt,value
2022-12-09T00:00:12.498Z,100362.50
2022-12-09T00:04:15.211Z,100365.28
2022-12-09T00:08:17.008Z,100363.28
2022-12-09T00:12:18.532Z,100363.56
2022-12-09T00:16:21.182Z,100362.47
2022-12-09T00:20:22.870Z,100368.25
2022-12-09T00:24:24.443Z,100362.75
2022-12-09T00:28:26.105Z,100375.72
2022-12-09T00:32:27.746Z,100381.16
2022-12-09T00:36:30.157Z,100380.09
2022-12-09T00:40:31.658Z,100380.63
2022-12-09T00:44:33.141Z,100383.34
2022-12-09T00:48:34.874Z,100384.75
2022-12-09T00:52:36.423Z,100384.34
2022-12-09T00:56:37.843Z,100387.16
2022-12-09T01:00:40.146Z,100393.91
2022-12-09T01:04:41.830Z,100393.28
2022-12-09T01:08:43.747Z,100395.53
2022-12-09T01:12:45.488Z,100400.66
2022-12-09T01:16:47.376Z,100399.59
2022-12-09T01:20:56.660Z,100397.25
2022-12-09T01:24:58.528Z,100394.53
2022-12-09T01:28:59.982Z,100389.44
2022-12-09T01:33:01.793Z,100393.13
2022-12-09T01:37:03.703Z,100390.63
2022-12-09T01:41:05.545Z,100393.94
2022-12-09T01:45:38.564Z,100394.88
2022-12-09T01:49:43.221Z,100390.00
2022-12-09T01:53:47.780Z,100394.84
2022-12-09T01:57:49.487Z,100390.44
2022-12-09T02:01:54.915Z,100389.47
2022-12-09T02:05:56.778Z,100384.88
2022-12-09T02:09:58.621Z,100374.69
2022-12-09T02:14:00.312Z,100384.53
2022-12-09T02:18:07.033Z,100400.84
2022-12-09T02:22:13.165Z,100392.19
2022-12-09T02:26:25.232Z,100395.41
2022-12-09T02:30:37.749Z,100396.28
2022-12-09T02:34:45.555Z,100395.63
2022-12-09T02:38:49.947Z,100383.69
2022-12-09T02:42:51.900Z,100389.38
2022-12-09T02:46:55.418Z,100379.25
2022-12-09T02:50:58.197Z,100371.97
2022-12-09T02:55:04.218Z,100367.34
2022-12-09T02:59:05.825Z,100370.88
2022-12-09T03:03:14.128Z,100376.53
2022-12-09T03:07:34.173Z,100371.06
2022-12-09T03:11:36.512Z,100371.22
2022-12-09T03:15:44.852Z,100366.91
2022-12-09T03:19:52.604Z,100374.13
2022-12-09T03:23:56.936Z,100384.53
2022-12-09T03:28:09.270Z,100378.97
2022-12-09T03:32:12.521Z,100385.88
2022-12-09T03:36:16.980Z,100372.41
2022-12-09T03:40:24.882Z,100376.06
2022-12-09T03:44:49.342Z,100374.94
2022-12-09T03:48:50.939Z,100376.03
2022-12-09T03:53:38.620Z,100374.78
2022-12-09T03:57:44.177Z,100371.69
2022-12-09T04:01:46.407Z,100377.22
2022-12-09T04:05:47.958Z,100370.88
2022-12-09T04:09:49.871Z,100371.00
2022-12-09T04:13:51.697Z,100369.44
2022-12-09T04:17:53.322Z,100370.75
2022-12-09T04:21:54.946Z,100372.41
2022-12-09T04:25:56.700Z,100368.97
2022-12-09T04:29:58.173Z,100369.69
2022-12-09T04:34:06.716Z,100371.00
2022-12-09T04:38:10.722Z,100360.50
2022-12-09T04:42:12.214Z,100359.69
2022-12-09T04:46:16.267Z,100362.22
2022-12-09T04:50:18.370Z,100368.81
2022-12-09T04:54:20.076Z,100371.53
2022-12-09T04:58:21.644Z,100375.47
2022-12-09T05:02:23.992Z,100370.81
2022-12-09T05:06:26.076Z,100371.88
2022-12-09T05:10:28.019Z,100375.19
2022-12-09T05:14:29.754Z,100368.25
2022-12-09T05:18:31.482Z,100372.31
2022-12-09T05:22:33.061Z,100376.19
2022-12-09T05:26:34.514Z,100368.69
2022-12-09T05:30:37.124Z,100370.25
2022-12-09T05:34:39.588Z,100384.16
2022-12-09T05:38:46.347Z,100391.50
2022-12-09T05:42:49.615Z,100383.59
2022-12-09T05:46:51.393Z,100386.53
2022-12-09T05:51:08.689Z,100391.03
2022-12-09T05:55:11.159Z,100392.31
2022-12-09T05:59:12.764Z,100380.22
2022-12-09T06:03:17.175Z,100381.84
2022-12-09T06:07:19.089Z,100381.09
2022-12-09T06:11:22.175Z,100387.72
2022-12-09T06:15:29.629Z,100382.59
2022-12-09T06:19:35.037Z,100387.72
2022-12-09T06:23:38.469Z,100390.75
2022-12-09T06:27:40.105Z,100388.78
2022-12-09T06:31:41.555Z,100395.66
2022-12-09T06:35:43.956Z,100401.09
2022-12-09T06:39:46.592Z,100398.91
2022-12-09T06:43:48.326Z,100400.63
2022-12-09T06:47:50.125Z,100413.78
2022-12-09T06:51:51.999Z,100415.50
2022-12-09T06:55:53.603Z,100404.09
2022-12-09T06:59:55.074Z,100411.41
2022-12-09T07:03:57.783Z,100410.66
2022-12-09T07:08:00.326Z,100413.59
2022-12-09T07:12:02.248Z,100413.25
2022-12-09T07:16:03.975Z,100414.72
2022-12-09T07:20:07.532Z,100410.00
2022-12-09T07:24:10.676Z,100413.88
2022-12-09T07:28:12.588Z,100418.16
2022-12-09T07:32:14.913Z,100416.75
2022-12-09T07:36:20.987Z,100419.84
2022-12-09T07:40:23.417Z,100413.50
2022-12-09T07:44:28.167Z,100422.75
2022-12-09T07:48:30.591Z,100422.00
2022-12-09T07:52:35.647Z,100427.63
2022-12-09T07:56:37.905Z,100428.19
2022-12-09T08:00:39.720Z,100419.94
2022-12-09T08:04:41.517Z,100422.88
2022-12-09T08:08:44.416Z,100432.63
2022-12-09T08:12:46.138Z,100426.06
2022-12-09T08:16:47.756Z,100418.75
2022-12-09T08:20:49.603Z,100432.66
2022-12-09T08:24:51.589Z,100438.84
2022-12-09T08:28:54.017Z,100443.03
2022-12-09T08:32:55.733Z,100436.84
2022-12-09T08:37:02.046Z,100437.69
2022-12-09T08:41:12.606Z,100436.47
2022-12-09T08:45:14.506Z,100445.94
2022-12-09T08:49:18.962Z,100446.47
2022-12-09T08:53:21.024Z,100446.41
2022-12-09T08:57:24.226Z,100447.16
2022-12-09T09:01:37.300Z,100445.28
2022-12-09T09:05:39.257Z,100447.06
2022-12-09T09:09:41.206Z,100456.97
2022-12-09T09:13:44.388Z,100453.69
2022-12-09T09:17:51.322Z,100460.88
2022-12-09T09:21:55.409Z,100461.84
2022-12-09T09:25:57.356Z,100464.88
2022-12-09T09:29:58.831Z,100457.50
2022-12-09T09:34:01.002Z,100462.41
2022-12-09T09:38:03.800Z,100458.66
2022-12-09T09:42:09.028Z,100458.66
2022-12-09T09:46:20.842Z,100451.94
2022-12-09T09:50:33.760Z,100449.41
2022-12-09T09:54:35.807Z,100449.97
2022-12-09T09:58:54.189Z,100442.97
2022-12-09T10:03:02.559Z,100440.00
2022-12-09T10:07:37.761Z,100432.63
2022-12-09T10:12:07.745Z,100434.59
2022-12-09T10:16:17.570Z,100439.34
2022-12-09T10:20:24.687Z,100434.22
2022-12-09T10:24:40.066Z,100428.78
2022-12-09T10:28:46.405Z,100441.88
2022-12-09T10:32:48.414Z,100433.81
2022-12-09T10:36:50.087Z,100430.63
2022-12-09T10:41:46.852Z,100412.03
2022-12-09T10:50:31.677Z,100412.16
2022-12-09T10:54:44.917Z,100407.81
2022-12-09T10:58:46.657Z,100391.63
2022-12-09T11:02:54.700Z,100395.25
2022-12-09T11:07:01.207Z,100394.72
2022-12-09T11:11:02.997Z,100391.38
2022-12-09T11:15:24.011Z,100388.59
2022-12-09T11:19:31.667Z,100379.53
2022-12-09T11:23:36.800Z,100381.69
2022-12-09T11:27:50.169Z,100382.19
2022-12-09T11:31:52.335Z,100370.94
2022-12-09T11:35:58.255Z,100373.53
2022-12-09T11:39:59.890Z,100368.50
2022-12-09T11:44:02.046Z,100371.47
2022-12-09T11:48:29.883Z,100373.22
2022-12-09T11:52:34.177Z,100359.97
2022-12-09T11:56:38.673Z,100364.31
2022-12-09T12:00:48.636Z,100368.31
2022-12-09T12:05:01.745Z,100369.72
2022-12-09T12:09:11.452Z,100374.00
2022-12-09T12:13:13.159Z,100369.91
2022-12-09T12:17:20.499Z,100364.34
2022-12-09T12:21:40.878Z,100352.06
2022-12-09T12:25:50.661Z,100355.84
2022-12-09T12:30:20.420Z,100346.78
2022-12-09T12:34:42.968Z,100338.78
2022-12-09T12:38:56.457Z,100342.09
2022-12-09T12:43:22.488Z,100336.78
2022-12-09T12:47:35.696Z,100342.25
2022-12-09T12:52:39.468Z,100342.84
2022-12-09T12:56:49.945Z,100336.88
2022-12-09T13:01:16.349Z,100332.97
2022-12-09T13:05:23.835Z,100328.63
2022-12-09T13:09:57.640Z,100327.25
2022-12-09T13:14:04.807Z,100332.66
2022-12-09T13:18:21.064Z,100338.34
2022-12-09T13:22:30.508Z,100329.31
2022-12-09T13:26:43.788Z,100348.13
2022-12-09T13:30:56.971Z,100346.88
2022-12-09T13:35:12.964Z,100349.53
2022-12-09T13:39:42.144Z,100344.16
2022-12-09T13:43:43.685Z,100341.47
2022-12-09T13:47:46.116Z,100337.78
2022-12-09T13:51:55.447Z,100341.53
2022-12-09T13:56:09.497Z,100344.28
2022-12-09T14:00:17.787Z,100348.88
2022-12-09T14:04:22.511Z,100350.88
2022-12-09T14:08:29.025Z,100361.41
2022-12-09T14:12:32.494Z,100361.28
2022-12-09T14:16:34.834Z,100353.66
2022-12-09T14:20:39.283Z,100359.47
2022-12-09T14:24:41.236Z,100363.56
2022-12-09T14:28:53.833Z,100362.13
2022-12-09T14:32:57.029Z,100352.63
2022-12-09T14:37:16.114Z,100360.03
2022-12-09T14:41:39.739Z,100359.00
2022-12-09T14:45:54.265Z,100351.13
2022-12-09T14:50:03.731Z,100341.41
2022-12-09T14:54:20.592Z,100356.34
2022-12-09T14:58:24.293Z,100360.88
2022-12-09T15:02:30.051Z,100355.06
2022-12-09T15:06:31.678Z,100353.09
2022-12-09T15:10:36.379Z,100357.13
2022-12-09T15:14:39.289Z,100363.50
2022-12-09T15:18:43.554Z,100365.53
2022-12-09T15:22:52.851Z,100359.00
2022-12-09T15:27:00.369Z,100361.88
2022-12-09T15:31:03.804Z,100370.47
2022-12-09T15:35:21.582Z,100378.56
2022-12-09T15:39:59.669Z,100378.97
2022-12-09T15:44:06.949Z,100376.69
2022-12-09T15:48:14.798Z,100373.91
2022-12-09T15:52:19.491Z,100363.13
2022-12-09T15:56:45.312Z,100357.19
2022-12-09T16:00:49.066Z,100367.91
2022-12-09T16:04:54.887Z,100360.78
2022-12-09T16:08:56.559Z,100365.44
2022-12-09T16:13:11.856Z,100370.91
2022-12-09T16:17:22.460Z,100374.47
2022-12-09T16:21:29.820Z,100368.47
2022-12-09T16:25:43.347Z,100363.38
2022-12-09T16:29:50.906Z,100370.38
2022-12-09T16:33:52.914Z,100373.63
2022-12-09T16:37:57.249Z,100368.34
2022-12-09T16:42:01.496Z,100357.59
2022-12-09T16:46:15.357Z,100347.38
2022-12-09T16:50:17.159Z,100352.75
2022-12-09T16:54:20.696Z,100358.53
2022-12-09T16:58:22.838Z,100354.25
2022-12-09T17:02:35.894Z,100348.75
2022-12-09T17:06:37.404Z,100351.34
2022-12-09T17:10:41.056Z,100352.84
2022-12-09T17:14:42.570Z,100356.63
2022-12-09T17:18:44.055Z,100354.88
2022-12-09T17:22:45.596Z,100353.84
2022-12-09T17:26:47.044Z,100353.66
2022-12-09T17:30:48.577Z,100349.56
2022-12-09T17:34:50.138Z,100345.31
2022-12-09T17:38:51.822Z,100353.31
2022-12-09T17:42:53.281Z,100353.19
2022-12-09T17:46:54.746Z,100355.81
2022-12-09T17:50:57.023Z,100364.66
2022-12-09T17:54:58.449Z,100357.44
2022-12-09T17:59:11.640Z,100372.63
2022-12-09T18:03:17.950Z,100377.84
2022-12-09T18:07:23.829Z,100375.34
2022-12-09T18:11:25.340Z,100377.03
2022-12-09T18:15:27.313Z,100378.84
2022-12-09T18:19:29.919Z,100373.78
2022-12-09T18:23:31.346Z,100382.47
2022-12-09T18:27:33.081Z,100377.69
2022-12-09T18:31:34.543Z,100380.41
2022-12-09T18:35:40.575Z,100375.13
2022-12-09T18:39:42.067Z,100386.78
2022-12-09T18:43:45.454Z,100391.56
2022-12-09T18:47:47.424Z,100391.81
2022-12-09T18:51:51.053Z,100392.94
2022-12-09T18:55:52.954Z,100393.19
2022-12-09T18:59:54.373Z,100399.00
2022-12-09T19:03:59.269Z,100399.44
2022-12-09T19:08:00.746Z,100394.63
2022-12-09T19:12:30.039Z,100398.06
2022-12-09T19:16:27.081Z,100391.84
2022-12-09T19:20:28.865Z,100397.81
2022-12-09T19:24:32.589Z,100395.25
2022-12-09T19:28:34.063Z,100396.44
2022-12-09T19:32:52.878Z,100405.00
2022-12-09T19:36:57.612Z,100408.84
2022-12-09T19:41:02.880Z,100413.19
2022-12-09T19:45:09.088Z,100411.78
2022-12-09T19:49:15.687Z,100408.31
2022-12-09T19:53:17.171Z,100413.56
2022-12-09T19:57:18.980Z,100415.22
2022-12-09T20:01:33.580Z,100413.84
2022-12-09T20:05:35.116Z,100402.69
2022-12-09T20:09:37.862Z,100421.47
2022-12-09T20:13:40.041Z,100420.44
2022-12-09T20:17:41.497Z,100418.84
2022-12-09T20:21:43.006Z,100413.09
2022-12-09T20:25:44.586Z,100416.94
2022-12-09T20:29:46.066Z,100420.59
2022-12-09T20:33:51.814Z,100416.63
2022-12-09T20:37:53.330Z,100410.34
2022-12-09T20:41:54.858Z,100409.53
2022-12-09T20:45:56.347Z,100425.31
2022-12-09T20:49:57.863Z,100428.03
2022-12-09T20:54:02.476Z,100426.69
2022-12-09T20:58:04.280Z,100432.19
2022-12-09T21:02:09.482Z,100432.28
2022-12-09T21:06:15.269Z,100428.34
2022-12-09T21:10:16.835Z,100433.34
2022-12-09T21:14:19.222Z,100439.03
2022-12-09T21:18:20.637Z,100433.63
2022-12-09T21:22:22.129Z,100428.44
2022-12-09T21:26:24.866Z,100420.53
2022-12-09T21:30:27.289Z,100420.13
2022-12-09T21:34:28.861Z,100422.19
2022-12-09T21:38:30.655Z,100418.69
2022-12-09T21:42:34.999Z,100418.91
2022-12-09T21:46:37.326Z,100424.91
2022-12-09T21:50:38.927Z,100422.88
2022-12-09T21:54:40.388Z,100427.31
2022-12-09T21:58:43.076Z,100420.41
2022-12-09T22:02:44.953Z,100431.28
2022-12-09T22:06:48.393Z,100419.84
2022-12-09T22:10:49.794Z,100425.28
2022-12-09T22:14:51.796Z,100412.53
2022-12-09T22:18:55.867Z,100419.31
2022-12-09T22:22:57.328Z,100421.94
2022-12-09T22:26:58.746Z,100421.59
2022-12-09T22:31:00.214Z,100425.47
2022-12-09T22:35:01.667Z,100421.34
2022-12-09T22:39:06.648Z,100430.28
2022-12-09T22:43:08.135Z,100420.34
2022-12-09T22:47:09.729Z,100422.88
2022-12-09T22:51:14.114Z,100418.81
2022-12-09T22:55:15.508Z,100425.66
2022-12-09T22:59:18.391Z,100422.81
2022-12-09T23:03:20.131Z,100426.41
2022-12-09T23:07:21.699Z,100424.97
2022-12-09T23:11:25.411Z,100433.59
2022-12-09T23:15:26.907Z,100433.06
2022-12-09T23:19:28.333Z,100427.16
2022-12-09T23:23:30.545Z,100425.66
2022-12-09T23:27:32.005Z,100428.22
2022-12-09T23:31:35.803Z,100422.91
2022-12-09T23:35:38.690Z,100425.66
2022-12-09T23:39:48.495Z,100421.84
2022-12-09T23:43:50.205Z,100422.19
2022-12-09T23:47:51.640Z,100421.59
2022-12-09T23:51:53.067Z,100418.94
2022-12-09T23:55:54.546Z,100411.44
2022-12-09T23:59:55.961Z,100407.34
